Badsey, United Kingdom
Current Conditions -  °F | °C
As of 9:50 AM on Thursday 29 Jan 2015 (Local Time) from EGBJ Reporting Station
Scattered Clouds Scattered Clouds  
Wind Chill: 32°   Ceiling: Unl
Heat Index: 39°   Visibility: 6mi
Dew Point: 34°   Wind: 13mph
Humidity: 81%   Direction: 210°SSW
Pressure: 29.09"   Gusts: NA
Location:  52.09°N, 1.9°W
Report Text: EGBJ 290950Z 21011KT 9999 SCT018 04/01 Q0985
Loading
Personal Weather Stations






























Interactive Weather Map New forecast layout! Learn more

10-Day Weather Forecast

Advertisements
Track Severe Weather on mobile